Time;durP1;ratioP1;P1;durP2;ratioP2;P2;SDS_P1;SDS_P2;PMS_P1;PMS_P2;Temp;Humidity;BMP_temperature;BMP_pressure;BME280_temperature;BME280_humidity;BME280_pressure;Samples;Min_cycle;Max_cycle;Signal;HPM_P1;HPM_P2
2022/06/20 00:00:09;;;;;;;18.73;8.02;;;;;;;;;;5042052;28;20681;-70
2022/06/20 00:02:41;;;;;;;21.42;8.55;;;;;;;;;;5038368;28;20103;-70
2022/06/20 00:05:06;;;;;;;28.77;10.18;;;;;;;;;;5041700;28;20481;-70
2022/06/20 00:07:32;;;;;;;19.23;9.43;;;;;;;;;;5042767;28;20037;-70
2022/06/20 00:09:57;;;;;;;21.10;8.73;;;;;;;;;;5043086;28;20393;-69
2022/06/20 00:12:26;;;;;;;26.05;9.15;;;;;;;;;;5041153;28;20041;-71
2022/06/20 00:14:55;;;;;;;19.55;8.68;;;;;;;;;;5041494;28;20036;-71
2022/06/20 00:17:21;;;;;;;22.70;8.65;;;;;;;;;;5040864;28;20540;-71
2022/06/20 00:19:47;;;;;;;17.02;8.98;;;;;;;;;;5024126;28;20119;-70
2022/06/20 00:22:12;;;;;;;19.05;8.65;;;;;;;;;;5040748;28;20039;-69
2022/06/20 00:24:38;;;;;;;22.10;8.65;;;;;;;;;;5042399;28;20052;-71
2022/06/20 00:27:06;;;;;;;23.15;8.55;;;;;;;;;;5040674;28;20055;-72
2022/06/20 00:29:40;;;;;;;24.08;8.82;;;;;;;;;;5041158;28;20037;-71
2022/06/20 00:32:08;;;;;;;21.88;8.70;;;;;;;;;;5040724;28;20048;-70
2022/06/20 00:34:33;;;;;;;17.60;7.97;;;;;;;;;;5040916;28;20599;-70
2022/06/20 00:37:00;;;;;;;17.90;9.27;;;;;;;;;;5041709;28;20036;-69
2022/06/20 00:39:25;;;;;;;18.02;8.27;;;;;;;;;;5040558;28;20040;-70
2022/06/20 00:41:51;;;;;;;24.30;9.13;;;;;;;;;;5023304;28;20033;-70
2022/06/20 00:44:36;;;;;;;19.45;8.57;;;;;;;;;;5040692;28;20041;-70
2022/06/20 00:47:07;;;;;;;18.50;9.57;;;;;;;;;;5041080;28;20946;-71
2022/06/20 00:49:58;;;;;;;22.40;9.25;;;;;;;;;;5040131;28;20178;-69
2022/06/20 00:52:38;;;;;;;22.23;8.48;;;;;;;;;;5040799;28;20898;-69
2022/06/20 00:55:10;;;;;;;16.38;8.50;;;;;;;;;;5041003;28;20123;-70
2022/06/20 00:57:41;;;;;;;16.40;8.68;;;;;;;;;;5040740;28;20052;-69
2022/06/20 01:00:15;;;;;;;19.67;8.50;;;;;;;;;;5040180;28;20056;-69
2022/06/20 01:02:48;;;;;;;21.02;9.60;;;;;;;;;;5040145;28;20072;-71
2022/06/20 01:05:39;;;;;;;17.13;9.38;;;;;;;;;;5040891;28;20033;-70
2022/06/20 01:08:12;;;;;;;18.65;9.05;;;;;;;;;;5017014;28;20063;-70
2022/06/20 01:10:47;;;;;;;19.27;10.10;;;;;;;;;;5040382;28;20123;-70
2022/06/20 01:13:19;;;;;;;21.55;10.60;;;;;;;;;;5040127;28;20045;-70
2022/06/20 01:15:45;;;;;;;;;;;;;;;;;;5041195;28;20033;-69
2022/06/20 01:18:19;;;;;;;23.98;8.82;;;;;;;;;;5040821;28;19932;-70
2022/06/20 01:20:47;;;;;;;17.00;8.50;;;;;;;;;;5040714;28;20091;-71
2022/06/20 01:23:26;;;;;;;21.73;9.10;;;;;;;;;;5039204;28;20037;-69
2022/06/20 01:25:54;;;;;;;27.67;9.63;;;;;;;;;;5040704;28;20059;-69
2022/06/20 01:28:27;;;;;;;22.52;9.52;;;;;;;;;;5040643;28;20883;-69
2022/06/20 01:30:53;;;;;;;20.60;9.50;;;;;;;;;;5040305;28;20045;-68
2022/06/20 01:33:20;;;;;;;17.80;8.90;;;;;;;;;;5039538;28;20040;-69
2022/06/20 01:38:32;;;;;;;29.90;9.18;;;;;;;;;;5040483;28;20025;-68
2022/06/20 01:43:44;;;;;;;23.60;8.75;;;;;;;;;;5038657;28;20040;-69
2022/06/20 01:46:11;;;;;;;15.95;8.65;;;;;;;;;;5040202;28;20033;-68
2022/06/20 01:48:43;;;;;;;22.60;9.43;;;;;;;;;;5040106;28;20276;-68
2022/06/20 01:51:16;;;;;;;24.17;8.82;;;;;;;;;;5040277;28;20079;-68
2022/06/20 01:53:43;;;;;;;28.23;9.18;;;;;;;;;;5039984;28;20040;-68
2022/06/20 01:56:10;;;;;;;24.90;9.02;;;;;;;;;;5039779;28;20563;-68
2022/06/20 01:58:39;;;;;;;19.05;9.18;;;;;;;;;;5040480;28;20061;-69
2022/06/20 02:01:05;;;;;;;17.48;9.65;;;;;;;;;;5040173;28;20167;-69
2022/06/20 02:03:35;;;;;;;24.88;10.20;;;;;;;;;;5039460;28;20524;-68
2022/06/20 02:06:01;;;;;;;27.60;9.63;;;;;;;;;;5039300;28;20163;-68
2022/06/20 02:08:27;;;;;;;26.50;9.68;;;;;;;;;;5039823;28;20507;-68
2022/06/20 02:11:07;;;;;;;21.88;10.23;;;;;;;;;;5022385;28;20029;-68
2022/06/20 02:13:40;;;;;;;20.38;10.02;;;;;;;;;;5042829;28;20123;-68
2022/06/20 02:16:09;;;;;;;24.38;10.20;;;;;;;;;;5044348;28;20037;-68
2022/06/20 02:18:40;;;;;;;21.70;10.65;;;;;;;;;;5043813;28;20017;-70
2022/06/20 02:21:10;;;;;;;19.27;11.00;;;;;;;;;;5044068;28;20094;-70
2022/06/20 02:23:39;;;;;;;22.20;10.18;;;;;;;;;;5025656;28;20045;-70
2022/06/20 02:26:08;;;;;;;24.23;11.70;;;;;;;;;;5043936;28;20037;-72
2022/06/20 02:28:53;;;;;;;27.20;10.77;;;;;;;;;;5042923;28;20032;-70
2022/06/20 02:31:18;;;;;;;18.92;10.07;;;;;;;;;;5043406;28;20041;-69
2022/06/20 02:33:46;;;;;;;27.65;10.70;;;;;;;;;;5043124;28;20040;-69
2022/06/20 02:36:12;;;;;;;17.65;9.85;;;;;;;;;;5043592;28;20041;-70
2022/06/20 02:38:37;;;;;;;27.63;10.85;;;;;;;;;;5043517;28;20472;-68
2022/06/20 02:41:03;;;;;;;14.82;9.85;;;;;;;;;;5025485;28;20486;-68
2022/06/20 02:43:38;;;;;;;22.10;10.80;;;;;;;;;;5042725;28;20072;-67
2022/06/20 02:46:08;;;;;;;25.80;11.82;;;;;;;;;;5045538;28;20051;-69
2022/06/20 02:48:35;;;;;;;19.48;10.85;;;;;;;;;;5045915;28;20108;-69
2022/06/20 02:51:06;;;;;;;23.23;10.50;;;;;;;;;;5043601;28;20390;-72
2022/06/20 02:53:55;;;;;;;24.27;9.93;;;;;;;;;;5042761;28;20109;-70
2022/06/20 02:56:22;;;;;;;23.85;9.05;;;;;;;;;;5043357;28;20440;-70
2022/06/20 02:58:57;;;;;;;16.67;9.30;;;;;;;;;;5042692;28;20044;-69
2022/06/20 03:01:54;;;;;;;17.65;7.55;;;;;;;;;;5042752;28;20041;-70
2022/06/20 03:04:22;;;;;;;23.35;8.30;;;;;;;;;;5042441;28;20549;-69
2022/06/20 03:06:55;;;;;;;16.88;7.05;;;;;;;;;;5042696;28;20085;-70
2022/06/20 03:09:26;;;;;;;15.90;6.78;;;;;;;;;;5042949;28;20147;-69
2022/06/20 03:11:52;;;;;;;17.70;6.72;;;;;;;;;;5042313;28;20040;-69
2022/06/20 03:14:21;;;;;;;13.95;6.88;;;;;;;;;;5041967;28;20036;-69
2022/06/20 03:16:47;;;;;;;18.92;7.53;;;;;;;;;;5043480;28;20071;-69
2022/06/20 03:19:19;;;;;;;21.27;7.60;;;;;;;;;;5043324;28;20068;-69
2022/06/20 03:21:47;;;;;;;26.55;7.82;;;;;;;;;;5043203;28;20062;-69
2022/06/20 03:24:17;;;;;;;22.35;7.50;;;;;;;;;;5041146;28;20120;-69
2022/06/20 03:26:43;;;;;;;16.17;6.90;;;;;;;;;;5042762;28;20047;-69
2022/06/20 03:29:17;;;;;;;25.08;7.40;;;;;;;;;;5024821;28;20033;-69
2022/06/20 03:31:43;;;;;;;20.95;8.05;;;;;;;;;;5043078;28;20489;-69
2022/06/20 03:34:09;;;;;;;13.35;7.25;;;;;;;;;;5041123;28;20082;-70
2022/06/20 03:36:35;;;;;;;21.77;7.18;;;;;;;;;;5042319;28;20523;-70
2022/06/20 03:39:03;;;;;;;22.02;7.18;;;;;;;;;;5042433;28;20032;-69
2022/06/20 03:41:29;;;;;;;19.02;7.50;;;;;;;;;;5039860;28;20382;-69
2022/06/20 03:44:02;;;;;;;16.58;6.82;;;;;;;;;;5041396;28;20044;-70
2022/06/20 03:46:33;;;;;;;20.30;7.13;;;;;;;;;;5040981;28;20064;-71
2022/06/20 03:49:07;;;;;;;18.13;6.88;;;;;;;;;;5041794;28;20045;-69
2022/06/20 03:51:45;;;;;;;14.48;6.82;;;;;;;;;;5024232;28;20044;-69
2022/06/20 03:54:21;;;;;;;18.60;7.32;;;;;;;;;;5041784;28;20037;-69
2022/06/20 03:56:53;;;;;;;18.30;7.25;;;;;;;;;;5038966;28;20032;-71
2022/06/20 04:00:05;;;;;;;21.17;7.43;;;;;;;;;;5024148;28;20041;-68
2022/06/20 04:02:43;;;;;;;19.33;7.10;;;;;;;;;;4911068;29;20048;-68
2022/06/20 04:05:22;;;;;;;19.17;6.68;;;;;;;;;;4913141;29;20052;-69
2022/06/20 04:08:00;;;;;;;20.52;7.78;;;;;;;;;;5000731;28;20101;-69
2022/06/20 04:13:21;;;;;;;23.65;8.43;;;;;;;;;;5041800;28;20041;-68
2022/06/20 04:15:52;;;;;;;18.92;7.70;;;;;;;;;;5040992;28;20044;-70
2022/06/20 04:18:29;;;;;;;21.02;8.55;;;;;;;;;;5040712;28;20098;-70
2022/06/20 04:20:57;;;;;;;20.10;7.50;;;;;;;;;;5040854;28;20041;-70
2022/06/20 04:23:30;;;;;;;20.95;8.45;;;;;;;;;;5040599;28;20045;-70
2022/06/20 04:26:20;;;;;;;18.90;8.18;;;;;;;;;;5040819;28;20485;-69
2022/06/20 04:29:10;;;;;;;23.20;8.38;;;;;;;;;;5040017;28;20067;-71
2022/06/20 04:31:41;;;;;;;20.40;8.32;;;;;;;;;;5040793;28;20103;-70
2022/06/20 04:34:42;;;;;;;22.75;7.95;;;;;;;;;;5040547;28;20858;-72
2022/06/20 04:37:22;;;;;;;18.02;7.28;;;;;;;;;;5009621;28;20139;-71
2022/06/20 04:40:02;;;;;;;20.92;7.20;;;;;;;;;;5039956;28;20116;-71
2022/06/20 04:42:39;;;;;;;24.00;7.60;;;;;;;;;;5040387;28;20136;-71
2022/06/20 04:45:13;;;;;;;15.20;7.43;;;;;;;;;;5022863;28;20067;-69
2022/06/20 04:47:46;;;;;;;16.95;6.90;;;;;;;;;;5040253;28;20041;-71
2022/06/20 04:50:19;;;;;;;18.27;6.78;;;;;;;;;;5038861;28;20416;-71
2022/06/20 04:52:45;;;;;;;15.50;7.10;;;;;;;;;;5039272;28;20422;-71
2022/06/20 04:55:16;;;;;;;18.48;7.45;;;;;;;;;;5040211;28;20151;-71
2022/06/20 04:57:42;;;;;;;18.73;7.32;;;;;;;;;;5022326;28;20405;-70
2022/06/20 05:00:17;;;;;;;16.58;7.13;;;;;;;;;;5036319;28;20505;-70
2022/06/20 05:02:42;;;;;;;25.70;6.70;;;;;;;;;;5021479;28;20037;-70
2022/06/20 05:05:15;;;;;;;19.02;6.55;;;;;;;;;;5038176;28;20052;-70
2022/06/20 05:07:41;;;;;;;20.20;6.40;;;;;;;;;;5032960;28;20033;-69
2022/06/20 05:10:16;;;;;;;17.13;6.05;;;;;;;;;;5040124;28;20548;-72
2022/06/20 05:12:59;;;;;;;11.63;5.82;;;;;;;;;;5038632;28;20037;-73
2022/06/20 05:15:46;;;;;;;12.75;5.28;;;;;;;;;;5039168;28;20032;-72
2022/06/20 05:18:31;;;;;;;20.45;4.97;;;;;;;;;;5039667;28;20150;-71
2022/06/20 05:21:09;;;;;;;18.30;5.97;;;;;;;;;;5039302;28;20037;-69
2022/06/20 05:23:57;;;;;;;17.75;5.63;;;;;;;;;;5039100;28;20092;-69
2022/06/20 05:26:35;;;;;;;15.27;5.22;;;;;;;;;;5040243;28;20047;-68
2022/06/20 05:29:06;;;;;;;21.02;5.30;;;;;;;;;;5039755;28;20037;-69
2022/06/20 05:31:35;;;;;;;28.33;7.45;;;;;;;;;;5038271;28;20052;-69
2022/06/20 05:34:04;;;;;;;21.85;8.45;;;;;;;;;;5039697;28;20040;-69
2022/06/20 05:36:52;;;;;;;28.27;8.35;;;;;;;;;;5039919;28;20412;-69
2022/06/20 05:39:24;;;;;;;17.15;7.28;;;;;;;;;;5040389;28;20414;-69
2022/06/20 05:41:50;;;;;;;12.70;6.82;;;;;;;;;;5040754;28;20128;-69
2022/06/20 05:44:16;;;;;;;28.00;7.30;;;;;;;;;;5038978;28;20041;-69
2022/06/20 05:46:43;;;;;;;18.10;7.15;;;;;;;;;;5005063;28;20040;-70
2022/06/20 05:49:14;;;;;;;19.30;7.88;;;;;;;;;;5043122;28;20037;-69
2022/06/20 05:51:42;;;;;;;17.37;7.13;;;;;;;;;;5044424;28;20127;-69
2022/06/20 05:54:22;;;;;;;14.30;6.40;;;;;;;;;;5044081;28;20036;-70
2022/06/20 05:57:04;;;;;;;23.25;7.20;;;;;;;;;;5043457;28;20041;-70
2022/06/20 05:59:44;;;;;;;23.25;7.20;;;;;;;;;;5044086;28;20041;-70
2022/06/20 06:02:41;;;;;;;19.27;6.53;;;;;;;;;;5044350;28;20033;-69
2022/06/20 06:05:24;;;;;;;16.40;7.03;;;;;;;;;;5034211;28;20048;-69
2022/06/20 06:07:57;;;;;;;23.27;6.93;;;;;;;;;;5025419;28;20053;-68
2022/06/20 06:10:32;;;;;;;20.88;6.53;;;;;;;;;;5044163;28;20040;-69
2022/06/20 06:13:23;;;;;;;23.60;7.20;;;;;;;;;;5043526;28;20143;-67
2022/06/20 06:16:47;;;;;;;16.35;6.63;;;;;;;;;;5043663;28;20040;-69
2022/06/20 06:19:33;;;;;;;24.63;6.97;;;;;;;;;;4942503;28;20039;-69
2022/06/20 06:22:03;;;;;;;21.40;6.90;;;;;;;;;;4943703;28;20051;-70
2022/06/20 06:24:30;;;;;;;19.92;6.07;;;;;;;;;;5019027;28;20135;-69
2022/06/20 06:26:58;;;;;;;18.52;6.43;;;;;;;;;;5043777;28;20090;-69
2022/06/20 06:29:48;;;;;;;15.40;6.70;;;;;;;;;;5042683;28;20124;-71
2022/06/20 06:32:36;;;;;;;19.38;6.68;;;;;;;;;;5035092;28;20079;-68
2022/06/20 06:35:23;;;;;;;14.40;6.10;;;;;;;;;;5043515;28;20048;-69
2022/06/20 06:37:55;;;;;;;18.15;6.50;;;;;;;;;;5043674;28;20417;-69
2022/06/20 06:40:20;;;;;;;;;;;;;;;;;;5043418;28;20132;-69
2022/06/20 06:42:47;;;;;;;16.83;5.88;;;;;;;;;;5043773;28;20292;-71
2022/06/20 06:45:22;;;;;;;13.63;5.95;;;;;;;;;;5043513;28;20044;-70
2022/06/20 06:47:56;;;;;;;14.57;5.72;;;;;;;;;;5025592;28;20091;-69
2022/06/20 06:50:39;;;;;;;17.30;5.50;;;;;;;;;;5043485;28;20068;-68
2022/06/20 06:53:22;;;;;;;22.80;5.90;;;;;;;;;;5024570;28;20044;-68
2022/06/20 06:55:52;;;;;;;14.77;5.78;;;;;;;;;;5043416;28;20041;-68
2022/06/20 06:58:23;;;;;;;15.45;5.95;;;;;;;;;;5046736;28;20457;-71
2022/06/20 07:01:01;;;;;;;18.33;6.10;;;;;;;;;;5042999;28;20106;-68
2022/06/20 07:03:35;;;;;;;12.77;5.22;;;;;;;;;;5042471;28;20037;-68
2022/06/20 07:06:15;;;;;;;16.10;5.03;;;;;;;;;;5043375;28;20080;-68
2022/06/20 07:08:48;;;;;;;12.38;5.20;;;;;;;;;;5043159;28;20051;-69
2022/06/20 07:11:21;;;;;;;13.13;5.07;;;;;;;;;;5043447;28;20037;-67
2022/06/20 07:14:19;;;;;;;22.70;5.60;;;;;;;;;;5048505;28;20037;-71
2022/06/20 07:17:25;;;;;;;16.25;4.85;;;;;;;;;;5012465;28;20397;-68
2022/06/20 07:19:51;;;;;;;17.38;5.50;;;;;;;;;;5029049;28;20497;-66
2022/06/20 07:22:20;;;;;;;15.25;4.45;;;;;;;;;;5043049;28;20071;-71
2022/06/20 07:24:46;;;;;;;14.85;5.00;;;;;;;;;;5041463;28;20040;-68
2022/06/20 07:27:30;;;;;;;15.90;5.05;;;;;;;;;;5042517;28;20036;-67
2022/06/20 07:30:04;;;;;;;12.82;5.03;;;;;;;;;;5039266;28;20088;-68
2022/06/20 07:32:44;;;;;;;17.35;4.95;;;;;;;;;;5042581;28;20071;-68
2022/06/20 07:35:15;;;;;;;24.20;5.88;;;;;;;;;;5042416;28;20813;-68
2022/06/20 07:37:46;;;;;;;27.33;4.82;;;;;;;;;;5023984;28;20037;-68
2022/06/20 07:40:25;;;;;;;21.92;5.00;;;;;;;;;;5040404;28;20090;-71
2022/06/20 07:42:54;;;;;;;14.38;4.80;;;;;;;;;;5024132;28;20029;-67
2022/06/20 07:45:39;;;;;;;18.02;5.18;;;;;;;;;;5042448;28;20413;-70
2022/06/20 07:48:34;;;;;;;18.15;4.72;;;;;;;;;;5041662;28;20485;-69
2022/06/20 07:51:11;;;;;;;16.55;5.28;;;;;;;;;;5042235;28;20059;-68
2022/06/20 07:53:47;;;;;;;10.90;4.90;;;;;;;;;;5041623;28;20047;-68
2022/06/20 07:56:18;;;;;;;15.88;4.25;;;;;;;;;;5042467;28;20075;-71
2022/06/20 07:58:52;;;;;;;17.90;4.53;;;;;;;;;;5041838;28;20033;-69
2022/06/20 08:01:24;;;;;;;18.52;5.15;;;;;;;;;;5024069;28;20056;-68
2022/06/20 08:03:55;;;;;;;13.23;4.82;;;;;;;;;;5042059;28;20123;-68
2022/06/20 08:06:39;;;;;;;13.75;4.57;;;;;;;;;;5042390;28;20034;-67
2022/06/20 08:09:18;;;;;;;14.95;4.60;;;;;;;;;;5041216;28;20033;-68
2022/06/20 08:11:50;;;;;;;12.23;4.65;;;;;;;;;;5041004;28;20138;-69
2022/06/20 08:14:25;;;;;;;24.00;5.13;;;;;;;;;;5041236;28;20036;-69
2022/06/20 08:16:54;;;;;;;17.38;4.72;;;;;;;;;;5041900;28;20390;-69
2022/06/20 08:19:20;;;;;;;19.10;4.68;;;;;;;;;;5040818;28;20448;-69
2022/06/20 08:21:56;;;;;;;10.68;4.68;;;;;;;;;;5041781;28;20029;-69
2022/06/20 08:24:51;;;;;;;15.80;4.60;;;;;;;;;;5041504;28;20052;-69
2022/06/20 08:27:54;;;;;;;17.45;5.18;;;;;;;;;;5011865;28;20049;-70
2022/06/20 08:30:41;;;;;;;14.10;4.68;;;;;;;;;;4979379;28;20935;-69
2022/06/20 08:33:27;;;;;;;13.88;5.00;;;;;;;;;;5040730;28;20402;-70
2022/06/20 08:36:15;;;;;;;11.82;4.80;;;;;;;;;;5041606;28;20120;-70
2022/06/20 08:39:05;;;;;;;16.70;4.65;;;;;;;;;;5041885;28;20490;-70
2022/06/20 08:41:30;;;;;;;16.70;4.47;;;;;;;;;;5040476;28;20045;-71
2022/06/20 08:44:29;;;;;;;22.98;4.97;;;;;;;;;;5040877;28;20087;-69
2022/06/20 08:47:32;;;;;;;12.07;4.70;;;;;;;;;;5041691;28;20516;-70
2022/06/20 08:50:27;;;;;;;17.75;5.43;;;;;;;;;;5039724;28;20055;-69
2022/06/20 08:53:29;;;;;;;12.10;5.13;;;;;;;;;;5039600;28;20850;-69
2022/06/20 08:56:13;;;;;;;19.05;5.07;;;;;;;;;;5039539;28;20025;-70
2022/06/20 08:58:59;;;;;;;17.05;5.13;;;;;;;;;;5039722;28;20033;-68
2022/06/20 09:01:40;;;;;;;18.17;4.70;;;;;;;;;;5008908;28;20053;-69
2022/06/20 09:04:42;;;;;;;15.27;4.97;;;;;;;;;;5040705;28;20041;-70
2022/06/20 09:07:22;;;;;;;18.95;5.35;;;;;;;;;;5041634;28;20105;-71
2022/06/20 09:10:12;;;;;;;16.20;4.95;;;;;;;;;;5023517;28;20037;-70
2022/06/20 09:13:02;;;;;;;15.77;4.45;;;;;;;;;;5040573;28;20033;-71
2022/06/20 09:15:42;;;;;;;16.80;4.60;;;;;;;;;;5041353;28;20119;-72
2022/06/20 09:18:35;;;;;;;14.48;4.47;;;;;;;;;;5023349;28;20485;-69
2022/06/20 09:21:25;;;;;;;14.52;4.30;;;;;;;;;;5040899;28;20044;-69
2022/06/20 09:24:06;;;;;;;15.82;3.92;;;;;;;;;;5042858;28;20671;-70
2022/06/20 09:26:39;;;;;;;14.00;4.00;;;;;;;;;;5045750;28;20045;-71
2022/06/20 09:29:30;;;;;;;13.75;4.25;;;;;;;;;;5045192;28;20124;-70
2022/06/20 09:32:10;;;;;;;15.85;4.78;;;;;;;;;;5045039;28;20123;-70
2022/06/20 09:35:14;;;;;;;15.10;4.38;;;;;;;;;;5044346;28;20052;-70
2022/06/20 09:37:52;;;;;;;10.60;3.80;;;;;;;;;;5044810;28;20094;-71
2022/06/20 09:40:33;;;;;;;13.15;3.95;;;;;;;;;;5045177;28;20036;-70
2022/06/20 09:43:10;;;;;;;20.35;4.00;;;;;;;;;;5044358;28;20063;-71
2022/06/20 09:46:01;;;;;;;13.43;3.50;;;;;;;;;;5044283;28;20033;-71
2022/06/20 09:48:44;;;;;;;13.05;3.80;;;;;;;;;;5043697;28;20056;-71
2022/06/20 09:51:35;;;;;;;11.15;3.50;;;;;;;;;;5044244;28;20394;-71
2022/06/20 09:54:15;;;;;;;10.43;3.10;;;;;;;;;;5044302;28;20060;-70
2022/06/20 09:56:55;;;;;;;13.02;3.53;;;;;;;;;;5044169;28;20047;-70
2022/06/20 09:59:54;;;;;;;13.38;3.90;;;;;;;;;;5044615;28;20072;-70
2022/06/20 10:02:31;;;;;;;11.20;3.80;;;;;;;;;;5044419;28;20444;-69
2022/06/20 10:05:02;;;;;;;11.88;3.63;;;;;;;;;;5043933;28;20041;-71
2022/06/20 10:07:27;;;;;;;13.18;3.92;;;;;;;;;;5043518;28;20044;-70
2022/06/20 10:09:58;;;;;;;13.07;3.90;;;;;;;;;;5044100;28;20721;-71
2022/06/20 10:12:46;;;;;;;;;;;;;;;;;;5043090;28;20470;-69
2022/06/20 10:15:20;;;;;;;12.77;3.90;;;;;;;;;;5043256;28;19912;-70
2022/06/20 10:17:53;;;;;;;10.57;4.07;;;;;;;;;;5042953;28;20064;-70
2022/06/20 10:20:45;;;;;;;12.07;3.40;;;;;;;;;;5043679;28;20052;-69
2022/06/20 10:23:37;;;;;;;14.35;3.30;;;;;;;;;;5043206;28;20489;-69
2022/06/20 10:26:15;;;;;;;;;;;;;;;;;;5044594;28;20032;-70
2022/06/20 10:28:54;;;;;;;8.80;3.45;;;;;;;;;;5025597;28;20050;-69
2022/06/20 10:31:42;;;;;;;10.43;3.50;;;;;;;;;;5044191;28;20044;-70
2022/06/20 10:34:19;;;;;;;11.27;2.83;;;;;;;;;;5042162;28;20044;-70
2022/06/20 10:36:50;;;;;;;17.00;3.65;;;;;;;;;;5043432;28;20094;-71
2022/06/20 10:39:37;;;;;;;12.90;3.70;;;;;;;;;;5042723;28;20025;-71
2022/06/20 10:42:24;;;;;;;13.43;3.35;;;;;;;;;;5041039;28;20052;-70
2022/06/20 10:45:23;;;;;;;9.10;2.95;;;;;;;;;;5043243;28;20037;-70
2022/06/20 10:48:14;;;;;;;18.25;3.30;;;;;;;;;;5025575;28;20051;-71
2022/06/20 10:50:45;;;;;;;10.60;2.85;;;;;;;;;;5042326;28;20044;-70
2022/06/20 10:53:19;;;;;;;;;;;;;;;;;;5043530;28;20040;-70
2022/06/20 10:56:13;;;;;;;10.05;3.17;;;;;;;;;;5043388;28;20444;-70
2022/06/20 10:58:55;;;;;;;13.23;3.30;;;;;;;;;;5043399;28;20124;-69
2022/06/20 11:01:23;;;;;;;13.00;3.70;;;;;;;;;;5042769;28;20033;-69
2022/06/20 11:04:14;;;;;;;11.00;3.60;;;;;;;;;;5042719;28;20037;-70
2022/06/20 11:06:39;;;;;;;15.98;3.70;;;;;;;;;;5043464;28;20036;-70
2022/06/20 11:09:13;;;;;;;6.93;3.10;;;;;;;;;;5043134;28;20045;-70
2022/06/20 11:11:47;;;;;;;7.82;3.53;;;;;;;;;;5042009;28;20065;-70
2022/06/20 11:14:38;;;;;;;13.18;3.47;;;;;;;;;;5042530;28;20051;-70
2022/06/20 11:17:19;;;;;;;;;;;;;;;;;;5043529;28;20405;-70
2022/06/20 11:19:56;;;;;;;11.38;3.30;;;;;;;;;;5042555;28;20320;-70
2022/06/20 11:22:41;;;;;;;10.57;3.40;;;;;;;;;;5024289;28;20040;-70
2022/06/20 11:25:09;;;;;;;11.30;3.38;;;;;;;;;;5041013;28;20063;-70
2022/06/20 11:27:47;;;;;;;14.32;3.30;;;;;;;;;;5042796;28;20044;-70
2022/06/20 11:30:25;;;;;;;9.40;3.25;;;;;;;;;;5042501;28;20033;-70
2022/06/20 11:33:18;;;;;;;13.82;3.33;;;;;;;;;;5042692;28;20041;-69
2022/06/20 11:36:03;;;;;;;8.63;3.08;;;;;;;;;;5042436;28;20089;-69
2022/06/20 11:38:57;;;;;;;7.82;2.88;;;;;;;;;;5042531;28;20486;-69
2022/06/20 11:41:44;;;;;;;6.88;3.00;;;;;;;;;;5040153;28;20040;-69
2022/06/20 11:44:39;;;;;;;11.23;3.28;;;;;;;;;;5041015;28;20032;-71
2022/06/20 11:47:04;;;;;;;7.50;3.25;;;;;;;;;;5039043;28;20037;-71
2022/06/20 11:50:07;;;;;;;16.90;3.67;;;;;;;;;;5042485;28;20520;-71
2022/06/20 11:52:54;;;;;;;11.20;3.03;;;;;;;;;;5024416;28;20041;-69
2022/06/20 11:55:52;;;;;;;6.45;3.05;;;;;;;;;;5040924;28;20099;-68
2022/06/20 11:58:32;;;;;;;7.13;2.47;;;;;;;;;;5042173;28;20029;-70
2022/06/20 12:01:06;;;;;;;7.68;2.85;;;;;;;;;;5041785;28;20025;-70
2022/06/20 12:03:53;;;;;;;12.23;2.95;;;;;;;;;;5041751;28;20401;-70
2022/06/20 12:06:31;;;;;;;6.63;2.72;;;;;;;;;;5041130;28;20033;-70
2022/06/20 12:09:06;;;;;;;7.50;3.35;;;;;;;;;;5041780;28;20548;-70
2022/06/20 12:12:00;;;;;;;6.15;2.80;;;;;;;;;;5041816;28;20051;-70
2022/06/20 12:14:55;;;;;;;9.25;3.13;;;;;;;;;;5023217;28;20477;-70
2022/06/20 12:17:29;;;;;;;7.97;3.42;;;;;;;;;;5041301;28;20040;-71
2022/06/20 12:25:49;;;;;;;7.78;3.15;;;;;;;;;;5041549;28;20074;-69
2022/06/20 12:28:20;;;;;;;7.45;3.28;;;;;;;;;;5040654;28;20044;-69
2022/06/20 12:31:11;;;;;;;9.43;2.97;;;;;;;;;;5041433;28;20998;-69
2022/06/20 12:33:39;;;;;;;;;;;;;;;;;;5041541;28;20040;-73
2022/06/20 12:36:44;;;;;;;15.55;3.95;;;;;;;;;;5041773;28;19966;-69
2022/06/20 12:39:36;;;;;;;10.38;2.92;;;;;;;;;;4963925;28;20038;-69
2022/06/20 12:42:05;;;;;;;15.80;3.72;;;;;;;;;;5041375;28;20044;-71
2022/06/20 12:44:44;;;;;;;7.05;3.55;;;;;;;;;;5041080;28;20064;-72
2022/06/20 12:47:13;;;;;;;7.70;3.42;;;;;;;;;;5041672;28;20090;-71
2022/06/20 12:50:16;;;;;;;12.95;3.17;;;;;;;;;;5041344;28;20086;-71
2022/06/20 12:53:17;;;;;;;7.53;3.38;;;;;;;;;;5041255;28;20043;-70
2022/06/20 12:55:55;;;;;;;8.95;3.03;;;;;;;;;;5040992;28;20036;-71
2022/06/20 12:58:27;;;;;;;12.40;2.72;;;;;;;;;;5041089;28;20090;-70
2022/06/20 13:01:16;;;;;;;6.72;2.85;;;;;;;;;;5041123;28;20079;-70
2022/06/20 13:04:13;;;;;;;10.15;2.95;;;;;;;;;;5040421;28;20386;-69
2022/06/20 13:07:01;;;;;;;11.52;3.28;;;;;;;;;;5041076;28;20463;-71
2022/06/20 13:09:29;;;;;;;14.40;3.15;;;;;;;;;;5040776;28;20036;-70
2022/06/20 13:12:23;;;;;;;8.68;3.15;;;;;;;;;;5040777;28;20913;-69
2022/06/20 13:15:08;;;;;;;8.13;3.47;;;;;;;;;;5022548;28;20063;-71
2022/06/20 13:17:43;;;;;;;10.23;3.30;;;;;;;;;;5040813;28;20053;-70
2022/06/20 13:20:39;;;;;;;8.40;3.25;;;;;;;;;;5040633;28;20107;-70
2022/06/20 13:23:26;;;;;;;9.27;3.33;;;;;;;;;;5041001;28;20068;-70
2022/06/20 13:26:10;;;;;;;7.88;3.05;;;;;;;;;;5040408;28;20033;-70
2022/06/20 13:28:51;;;;;;;11.75;3.10;;;;;;;;;;5040537;28;20140;-70
2022/06/20 13:31:17;;;;;;;;;;;;;;;;;;5041122;28;20041;-70
2022/06/20 13:33:43;;;;;;;9.60;2.95;;;;;;;;;;5040429;28;19924;-70
2022/06/20 13:36:39;;;;;;;6.30;3.00;;;;;;;;;;5040052;28;20041;-70
2022/06/20 13:39:42;;;;;;;11.30;3.15;;;;;;;;;;4982663;28;20072;-71
2022/06/20 13:42:33;;;;;;;7.85;3.40;;;;;;;;;;5039359;28;20131;-70
2022/06/20 13:45:10;;;;;;;;;;;;;;;;;;5038333;28;20036;-70
2022/06/20 13:47:52;;;;;;;6.75;3.10;;;;;;;;;;5037290;28;19917;-70
2022/06/20 13:50:27;;;;;;;11.40;3.35;;;;;;;;;;5037695;28;20124;-70
2022/06/20 13:53:08;;;;;;;12.25;3.15;;;;;;;;;;5039218;28;20041;-70
2022/06/20 13:55:50;;;;;;;17.73;3.42;;;;;;;;;;5037130;28;20080;-70
2022/06/20 13:58:25;;;;;;;12.73;3.03;;;;;;;;;;5037780;28;20036;-70
2022/06/20 14:01:03;;;;;;;15.02;3.17;;;;;;;;;;5038580;28;20049;-70
2022/06/20 14:03:34;;;;;;;8.95;3.22;;;;;;;;;;5037799;28;20489;-70
2022/06/20 14:06:27;;;;;;;7.80;2.75;;;;;;;;;;5038441;28;20049;-70
2022/06/20 14:09:01;;;;;;;10.10;3.00;;;;;;;;;;5036965;28;20819;-71
2022/06/20 14:11:40;;;;;;;14.90;3.50;;;;;;;;;;5043147;28;20548;-70
2022/06/20 14:14:17;;;;;;;9.85;3.20;;;;;;;;;;5041915;28;20036;-71
2022/06/20 14:16:47;;;;;;;6.80;2.90;;;;;;;;;;5042759;28;20110;-71
2022/06/20 14:19:19;;;;;;;9.17;3.17;;;;;;;;;;5040746;28;20037;-71
2022/06/20 14:21:50;;;;;;;8.30;2.75;;;;;;;;;;5041638;28;20076;-70
2022/06/20 14:24:22;;;;;;;17.55;3.15;;;;;;;;;;5036954;28;20032;-70
2022/06/20 14:27:00;;;;;;;10.82;3.10;;;;;;;;;;5039125;28;20041;-71
2022/06/20 14:29:30;;;;;;;15.98;3.45;;;;;;;;;;5041165;28;20469;-71
2022/06/20 14:32:14;;;;;;;9.88;3.08;;;;;;;;;;5041516;28;20063;-71
2022/06/20 14:35:20;;;;;;;11.52;2.80;;;;;;;;;;5040676;28;20052;-70
2022/06/20 14:37:46;;;;;;;9.30;2.95;;;;;;;;;;5041419;28;20151;-71
2022/06/20 14:40:21;;;;;;;11.88;3.03;;;;;;;;;;5040927;28;20047;-71
2022/06/20 14:43:01;;;;;;;8.18;3.15;;;;;;;;;;5041656;28;20037;-70
2022/06/20 14:45:35;;;;;;;11.43;3.28;;;;;;;;;;5041229;28;20060;-70
2022/06/20 14:48:19;;;;;;;11.07;3.05;;;;;;;;;;5040277;28;20979;-70
2022/06/20 14:51:01;;;;;;;11.07;3.25;;;;;;;;;;5040518;28;20040;-72
2022/06/20 14:53:39;;;;;;;16.00;3.13;;;;;;;;;;5040601;28;20051;-71
2022/06/20 14:56:16;;;;;;;10.57;2.70;;;;;;;;;;5040696;28;20033;-70
2022/06/20 14:59:00;;;;;;;11.38;3.20;;;;;;;;;;5040770;28;20025;-70
2022/06/20 15:01:40;;;;;;;8.57;3.13;;;;;;;;;;5041325;28;20047;-71
2022/06/20 15:04:18;;;;;;;9.75;3.10;;;;;;;;;;5039024;28;20037;-72
2022/06/20 15:06:52;;;;;;;8.45;3.00;;;;;;;;;;5039970;28;20060;-71
2022/06/20 15:09:27;;;;;;;9.80;3.38;;;;;;;;;;5043025;28;20032;-71
2022/06/20 15:12:25;;;;;;;8.98;3.15;;;;;;;;;;5042657;28;20276;-70
2022/06/20 15:15:31;;;;;;;15.05;3.20;;;;;;;;;;5023146;28;20087;-70
2022/06/20 15:17:57;;;;;;;26.23;3.20;;;;;;;;;;5042682;28;20140;-70
2022/06/20 15:20:51;;;;;;;18.58;3.40;;;;;;;;;;5042913;28;20206;-70
2022/06/20 15:23:26;;;;;;;18.10;3.45;;;;;;;;;;5032562;28;20166;-72
2022/06/20 15:25:59;;;;;;;8.70;3.10;;;;;;;;;;5036324;28;20441;-69
2022/06/20 15:28:29;;;;;;;12.73;2.80;;;;;;;;;;5042400;28;20549;-73
2022/06/20 15:31:03;;;;;;;12.67;2.97;;;;;;;;;;5042098;28;20493;-70
2022/06/20 15:33:28;;;;;;;14.27;3.10;;;;;;;;;;5041521;28;20287;-70
2022/06/20 15:36:06;;;;;;;8.45;2.92;;;;;;;;;;5041319;28;20037;-70
2022/06/20 15:38:53;;;;;;;7.93;2.72;;;;;;;;;;5042338;28;20028;-71
2022/06/20 15:41:47;;;;;;;10.40;2.53;;;;;;;;;;5042234;28;20040;-70
2022/06/20 15:44:37;;;;;;;8.38;2.80;;;;;;;;;;5023836;28;20102;-70
2022/06/20 15:47:30;;;;;;;10.15;2.97;;;;;;;;;;5041778;28;20036;-70
2022/06/20 15:50:23;;;;;;;5.25;2.60;;;;;;;;;;5027727;28;20036;-70